メインページ
METAR-TAF:

METAR-TAF

空港 :

ウンベルト・デルガード空港

リスボン, ポルトガル

緯度: 38-46N, 経度: 009-08W, 海抜: 114m

現時点の気象観測

当レポートは27分前の05:30(UTC)に作成
北/北東の風 5kt
気温 9°C
湿度 71%
気圧 1024 hPa
視程10km以上
1,500メートル以下は雲なし、積乱雲なし

METAR: LPPT 210530Z 03005KT CAVOK 09/04 Q1024

時間: 05:57 (05:57 UTC)

予報

当レポートは57分前の05:00(UTC)に作成
予報は21日の 06時(UTC)から 22日の 12時(UTC)まで有効
北東の風 8kt
視程10km以上
1,500メートル以下は雲なし、積乱雲なし
21日の 10時(UTC)から 21日の 12時(UTC)まで徐々に
変向風 3kt
21日の 16時(UTC)から 21日の 19時(UTC)まで徐々に
北/北西の風 10kt
22日の 00時(UTC)から 22日の 03時(UTC)まで徐々に
北東の風 8kt

TAF: LPPT 210500Z 2106/2212 05008KT CAVOK BECMG 2110/2112 VRB03KT BECMG 2116/2119 33010KT BECMG 2200/2203 05008KT

4,000以上の空港の気象観測と天気予報(METAR報とTAF報)

利用可能な観測所は地図上に黄色い丸と赤い丸で示す。

丸の上にカーソルを重ねると観測所名を参照できる。

次にクリックすると気象観測と天気予報を参照できる。

マップの切り替え:黒色「×」印の緑ボタンをクリックして拡大、「-」印の緑ボタンをクリックして縮小、緑色の三角印をクリックして隣りの地図に切り替え


METAR-TAF: